Time;durP1;ratioP1;P1;durP2;ratioP2;P2;SDS_P1;SDS_P2;PMS_P1;PMS_P2;Temp;Humidity;BMP_temperature;BMP_pressure;BME280_temperature;BME280_humidity;BME280_pressure;Samples;Min_cycle;Max_cycle;Signal;HPM_P1;HPM_P2
2022/12/24 00:02:17;;;;;;;5.38;1.95;;;30.70;99.90;;;;;;5053667;28;20078;-68
2022/12/24 00:04:43;;;;;;;3.35;1.73;;;30.70;99.90;;;;;;5053482;28;20370;-68
2022/12/24 00:07:08;;;;;;;2.20;2.10;;;30.60;99.90;;;;;;5053577;28;20035;-69
2022/12/24 00:09:34;;;;;;;0.63;0.63;;;30.60;99.90;;;;;;5053375;28;20108;-68
2022/12/24 00:12:00;;;;;;;0.30;0.30;;;30.60;99.90;;;;;;5053402;28;20048;-68
2022/12/24 00:14:25;;;;;;;0.68;0.68;;;30.60;99.90;;;;;;5053252;28;20040;-68
2022/12/24 00:16:51;;;;;;;4.38;1.70;;;30.60;99.90;;;;;;5053237;28;20056;-68
2022/12/24 00:19:17;;;;;;;0.75;0.75;;;30.70;99.90;;;;;;5053127;28;20025;-69
2022/12/24 00:21:42;;;;;;;1.05;1.05;;;30.60;99.90;;;;;;5053006;28;20056;-68
2022/12/24 00:24:08;;;;;;;0.20;0.20;;;30.60;99.90;;;;;;5051928;28;20032;-68
2022/12/24 00:26:34;;;;;;;0.20;0.20;;;30.50;99.90;;;;;;5053174;28;20122;-69
2022/12/24 00:29:00;;;;;;;0.30;0.30;;;30.40;99.90;;;;;;5053166;28;20021;-69
2022/12/24 00:31:26;;;;;;;16.33;4.28;;;30.40;99.90;;;;;;5051870;28;20028;-68
2022/12/24 00:33:52;;;;;;;1.63;1.60;;;30.30;99.90;;;;;;5051857;28;20056;-68
2022/12/24 00:36:18;;;;;;;1.08;1.05;;;30.20;99.90;;;;;;5052908;28;20069;-68
2022/12/24 00:38:45;;;;;;;0.20;0.20;;;30.30;99.90;;;;;;5053072;28;20417;-68
2022/12/24 00:41:24;;;;;;;0.20;0.20;;;30.20;99.90;;;;;;5052580;28;20056;-70
2022/12/24 00:43:57;;;;;;;0.20;0.20;;;30.10;99.90;;;;;;5052712;28;20108;-68
2022/12/24 00:46:25;;;;;;;5.47;2.50;;;30.10;99.90;;;;;;5052711;28;20021;-68
2022/12/24 00:48:51;;;;;;;0.82;0.82;;;30.10;99.90;;;;;;5052675;28;20484;-68
2022/12/24 00:51:17;;;;;;;4.35;1.40;;;30.00;99.90;;;;;;5052654;28;20029;-68
2022/12/24 00:53:43;;;;;;;0.20;0.20;;;30.00;99.90;;;;;;5052817;28;20025;-69
2022/12/24 00:56:09;;;;;;;1.02;0.35;;;29.90;99.90;;;;;;5052534;28;20449;-68
2022/12/24 00:58:35;;;;;;;0.20;0.20;;;29.90;99.90;;;;;;5052831;28;20029;-68
2022/12/24 01:01:01;;;;;;;0.20;0.20;;;29.90;99.90;;;;;;5052954;28;20371;-68
2022/12/24 01:03:36;;;;;;;1.75;1.65;;;29.90;99.90;;;;;;5051750;28;20077;-67
2022/12/24 01:06:25;;;;;;;0.20;0.20;;;29.90;99.90;;;;;;5052724;28;20114;-68
2022/12/24 01:08:51;;;;;;;0.20;0.20;;;29.90;99.90;;;;;;5052636;28;20017;-69
2022/12/24 01:11:17;;;;;;;10.65;4.07;;;29.90;99.90;;;;;;5053443;28;20032;-68
2022/12/24 01:13:42;;;;;;;2.03;1.00;;;29.90;99.90;;;;;;5053572;28;20481;-68
2022/12/24 01:16:17;;;;;;;0.88;0.88;;;29.80;99.90;;;;;;5053627;28;20028;-69
2022/12/24 01:18:43;;;;;;;3.83;2.17;;;29.80;99.90;;;;;;5051789;28;20514;-69
2022/12/24 01:21:09;;;;;;;0.65;0.65;;;29.80;99.90;;;;;;5053163;28;20124;-69
2022/12/24 01:23:35;;;;;;;0.20;0.20;;;29.60;99.90;;;;;;5052044;28;20527;-68
2022/12/24 01:26:01;;;;;;;0.30;0.30;;;29.60;99.90;;;;;;5052028;28;20108;-69
2022/12/24 01:28:27;;;;;;;2.00;1.00;;;29.60;99.90;;;;;;5052123;28;20025;-68
2022/12/24 01:30:53;;;;;;;0.20;0.20;;;29.60;99.90;;;;;;5051989;28;20025;-68
2022/12/24 01:33:19;;;;;;;0.20;0.20;;;29.60;99.90;;;;;;5051893;28;20032;-68
2022/12/24 01:35:44;;;;;;;0.20;0.20;;;29.50;99.90;;;;;;5052105;28;20546;-68
2022/12/24 01:38:11;;;;;;;2.15;2.05;;;29.40;99.90;;;;;;5051794;28;20530;-68
2022/12/24 01:43:26;;;;;;;17.38;1.10;;;29.30;99.90;;;;;;5052025;28;20055;-68
2022/12/24 01:46:14;;;;;;;1.15;1.15;;;29.20;99.90;;;;;;5051461;28;20504;-68
2022/12/24 01:48:54;;;;;;;0.20;0.20;;;29.20;99.90;;;;;;5051615;28;20028;-68
2022/12/24 01:51:28;;;;;;;1.67;1.58;;;29.10;99.90;;;;;;5051687;28;20102;-68
2022/12/24 01:54:02;;;;;;;0.20;0.20;;;29.10;99.90;;;;;;5051468;28;20350;-68
2022/12/24 01:56:31;;;;;;;0.30;0.30;;;29.10;99.90;;;;;;5051623;28;20029;-68
2022/12/24 01:59:03;;;;;;;0.20;0.20;;;29.00;99.90;;;;;;5051750;28;20540;-67
2022/12/24 02:01:29;;;;;;;7.88;1.15;;;29.00;99.90;;;;;;5051379;28;20037;-68
2022/12/24 02:03:55;;;;;;;0.30;0.30;;;29.10;99.90;;;;;;5051599;28;20032;-73
2022/12/24 02:06:21;;;;;;;0.65;0.65;;;27.80;99.90;;;;;;5051365;28;20029;-71
2022/12/24 02:08:47;;;;;;;2.60;1.67;;;28.80;99.90;;;;;;5051409;28;20032;-71
2022/12/24 02:11:19;;;;;;;0.25;0.25;;;29.30;99.90;;;;;;5051191;28;20410;-70
2022/12/24 02:13:56;;;;;;;1.08;1.08;;;29.40;99.90;;;;;;5051581;28;20047;-70
2022/12/24 02:16:30;;;;;;;0.20;0.20;;;29.20;99.90;;;;;;5051207;28;20474;-70
2022/12/24 02:19:23;;;;;;;0.40;0.40;;;29.20;99.90;;;;;;5051252;28;20044;-71
2022/12/24 02:21:53;;;;;;;0.57;0.57;;;29.30;99.90;;;;;;5050975;28;20029;-71
2022/12/24 02:24:30;;;;;;;0.35;0.35;;;29.40;99.90;;;;;;5051074;28;20079;-70
2022/12/24 02:27:14;;;;;;;0.32;0.32;;;29.50;99.90;;;;;;5050870;28;20086;-70
2022/12/24 02:30:05;;;;;;;0.50;0.50;;;29.50;99.90;;;;;;5051044;28;20036;-70
2022/12/24 02:33:03;;;;;;;1.75;1.65;;;29.60;99.90;;;;;;5050864;28;20024;-69
2022/12/24 02:35:47;;;;;;;3.70;3.15;;;29.50;99.90;;;;;;5050703;28;20025;-69
2022/12/24 02:38:24;;;;;;;1.65;1.55;;;29.60;99.90;;;;;;5050928;28;20052;-69
2022/12/24 02:40:59;;;;;;;0.40;0.40;;;29.50;99.90;;;;;;5050671;28;20055;-69
2022/12/24 02:43:31;;;;;;;0.30;0.30;;;29.50;99.90;;;;;;5050919;28;20024;-69
2022/12/24 02:46:01;;;;;;;0.20;0.20;;;29.60;99.90;;;;;;5050781;28;20025;-70
2022/12/24 02:48:29;;;;;;;0.40;0.40;;;29.60;99.90;;;;;;5050952;28;20033;-69
2022/12/24 02:51:07;;;;;;;0.85;0.85;;;29.70;99.90;;;;;;5050875;28;20032;-70
2022/12/24 02:53:34;;;;;;;0.20;0.20;;;29.50;99.90;;;;;;5050787;28;20044;-69
2022/12/24 02:56:05;;;;;;;0.20;0.20;;;29.50;99.90;;;;;;5050566;28;20477;-69
2022/12/24 02:59:01;;;;;;;0.68;0.63;;;29.60;99.90;;;;;;5050753;28;20060;-69
2022/12/24 03:01:45;;;;;;;0.50;0.50;;;29.70;99.90;;;;;;5050780;28;20186;-68
2022/12/24 03:04:17;;;;;;;0.30;0.30;;;29.70;99.90;;;;;;5050684;28;20021;-68
2022/12/24 03:06:58;;;;;;;0.30;0.30;;;29.80;99.90;;;;;;5050762;28;20064;-67
2022/12/24 03:09:57;;;;;;;0.47;0.47;;;29.90;99.90;;;;;;5050843;28;20029;-68
2022/12/24 03:12:31;;;;;;;0.20;0.20;;;29.80;99.90;;;;;;5050668;28;20055;-68
2022/12/24 03:14:58;;;;;;;10.95;3.47;;;29.80;99.90;;;;;;5050519;28;20033;-67
2022/12/24 03:17:24;;;;;;;3.38;3.05;;;29.90;99.90;;;;;;5050828;28;20373;-69
2022/12/24 03:19:53;;;;;;;0.20;0.20;;;29.90;99.90;;;;;;5050734;28;20044;-67
2022/12/24 03:22:21;;;;;;;0.20;0.20;;;29.90;99.90;;;;;;5050827;28;20424;-67
2022/12/24 03:24:46;;;;;;;0.20;0.20;;;29.90;99.90;;;;;;5050905;28;20036;-66
2022/12/24 03:27:14;;;;;;;28.95;3.28;;;30.00;99.90;;;;;;5052818;28;20408;-67
2022/12/24 03:29:40;;;;;;;0.30;0.30;;;30.00;99.90;;;;;;5055927;28;20099;-68
2022/12/24 03:32:06;;;;;;;0.55;0.55;;;30.00;99.90;;;;;;5056578;28;20021;-66
2022/12/24 03:34:32;;;;;;;0.50;0.50;;;30.00;99.90;;;;;;5056027;28;20029;-67
2022/12/24 03:36:58;;;;;;;0.20;0.20;;;30.00;99.90;;;;;;5055221;28;20078;-67
2022/12/24 03:39:24;;;;;;;0.20;0.20;;;30.00;99.90;;;;;;5054323;28;20017;-67
2022/12/24 03:41:50;;;;;;;0.45;0.45;;;30.00;99.90;;;;;;5054293;28;20037;-66
2022/12/24 03:44:15;;;;;;;1.42;1.42;;;30.00;99.90;;;;;;5054581;28;20021;-67
2022/12/24 03:46:41;;;;;;;0.20;0.20;;;29.80;99.90;;;;;;5054068;28;20603;-66
2022/12/24 03:49:07;;;;;;;0.35;0.35;;;29.70;99.90;;;;;;5053928;28;20021;-67
2022/12/24 03:51:32;;;;;;;6.07;1.85;;;29.70;99.90;;;;;;5053819;28;20013;-68
2022/12/24 03:53:59;;;;;;;0.30;0.30;;;29.70;99.90;;;;;;5053855;28;20477;-67
2022/12/24 03:56:25;;;;;;;1.10;1.10;;;29.70;99.90;;;;;;5053919;28;20028;-67
2022/12/24 03:58:51;;;;;;;0.20;0.20;;;29.60;99.90;;;;;;5053916;28;20049;-67
2022/12/24 04:01:17;;;;;;;0.20;0.20;;;29.60;99.90;;;;;;5053885;28;20114;-66
2022/12/24 04:03:43;;;;;;;0.60;0.60;;;29.50;99.90;;;;;;5054133;28;20048;-67
2022/12/24 04:06:12;;;;;;;0.20;0.20;;;29.40;99.90;;;;;;5053633;28;20029;-66
2022/12/24 04:08:38;;;;;;;0.20;0.20;;;29.40;99.90;;;;;;5053657;28;20031;-67
2022/12/24 04:11:05;;;;;;;0.90;0.90;;;29.50;99.90;;;;;;5053409;28;20032;-67
2022/12/24 04:13:31;;;;;;;0.50;0.50;;;29.60;99.90;;;;;;5053574;28;20051;-67
2022/12/24 04:16:02;;;;;;;0.20;0.20;;;29.60;99.90;;;;;;5053553;28;20025;-67
2022/12/24 04:18:27;;;;;;;1.33;1.25;;;29.60;99.90;;;;;;5053491;28;20120;-67
2022/12/24 04:20:53;;;;;;;0.30;0.30;;;29.60;99.90;;;;;;5053443;28;20108;-67
2022/12/24 04:23:19;;;;;;;1.60;1.30;;;29.60;99.90;;;;;;5053160;28;20085;-67
2022/12/24 04:25:46;;;;;;;0.45;0.35;;;29.60;99.90;;;;;;5053254;28;20045;-68
2022/12/24 04:28:12;;;;;;;0.57;0.57;;;29.60;99.90;;;;;;5053253;28;20024;-66
2022/12/24 04:30:39;;;;;;;0.43;0.43;;;29.50;99.90;;;;;;5053198;28;20025;-66
2022/12/24 04:33:05;;;;;;;0.30;0.30;;;29.40;99.90;;;;;;5052958;28;20025;-66
2022/12/24 04:35:31;;;;;;;2.50;1.65;;;;;;;;;;5052997;28;20027;-66
2022/12/24 04:37:57;;;;;;;0.22;0.22;;;29.40;99.90;;;;;;5053076;28;20056;-68
2022/12/24 04:40:23;;;;;;;1.30;1.27;;;29.30;99.90;;;;;;5052357;28;20076;-67
2022/12/24 04:42:49;;;;;;;0.85;0.85;;;29.30;99.90;;;;;;5052899;28;20024;-67
2022/12/24 04:45:18;;;;;;;0.20;0.20;;;29.20;99.90;;;;;;5052893;28;20029;-67
2022/12/24 04:47:44;;;;;;;2.50;2.40;;;29.20;99.90;;;;;;5053113;28;20025;-67
2022/12/24 04:50:10;;;;;;;0.30;0.30;;;29.00;99.90;;;;;;5052773;28;20059;-66
2022/12/24 04:52:36;;;;;;;0.20;0.20;;;29.00;99.90;;;;;;5053018;28;20517;-68
2022/12/24 04:55:03;;;;;;;0.30;0.30;;;28.90;99.90;;;;;;5052850;28;20025;-67
2022/12/24 04:57:32;;;;;;;2.05;1.85;;;28.80;99.90;;;;;;5052529;28;20098;-67
2022/12/24 04:59:58;;;;;;;0.20;0.20;;;28.70;99.90;;;;;;5052751;28;20591;-67
2022/12/24 05:02:24;;;;;;;5.53;1.27;;;28.60;99.90;;;;;;5052656;28;20043;-66
2022/12/24 05:04:49;;;;;;;1.00;1.00;;;28.60;99.90;;;;;;5052981;28;20029;-66
2022/12/24 05:07:15;;;;;;;0.20;0.20;;;28.60;99.90;;;;;;5052646;28;20025;-67
2022/12/24 05:09:41;;;;;;;0.20;0.20;;;28.50;99.90;;;;;;5052546;28;20112;-67
2022/12/24 05:12:07;;;;;;;7.13;2.75;;;28.40;99.90;;;;;;5052342;28;20029;-67
2022/12/24 05:14:32;;;;;;;0.20;0.20;;;27.80;99.90;;;;;;5050940;28;20045;-67
2022/12/24 05:16:58;;;;;;;0.20;0.20;;;27.70;99.90;;;;;;5052268;28;20461;-67
2022/12/24 05:19:24;;;;;;;0.20;0.20;;;27.60;99.90;;;;;;5034578;28;20021;-67
2022/12/24 05:26:20;;;;;;;0.20;0.20;;;27.50;99.90;;;;;;5051067;28;20385;-67
2022/12/24 05:27:20;;;;;;;0.20;0.20;;;27.40;99.90;;;;;;5052515;28;20517;-66
2022/12/24 05:29:45;;;;;;;0.28;0.28;;;27.40;99.90;;;;;;5052149;28;20102;-66
2022/12/24 05:32:11;;;;;;;7.53;1.15;;;27.30;99.90;;;;;;5050896;28;20453;-66
2022/12/24 05:34:37;;;;;;;2.65;1.25;;;27.30;99.90;;;;;;5051866;28;20056;-66
2022/12/24 05:37:02;;;;;;;0.20;0.20;;;27.20;99.90;;;;;;5051881;28;20457;-67
2022/12/24 05:39:28;;;;;;;0.20;0.20;;;27.10;99.90;;;;;;5051831;28;20119;-67
2022/12/24 05:41:54;;;;;;;0.20;0.20;;;27.00;99.90;;;;;;5051944;28;20021;-66
2022/12/24 05:44:19;;;;;;;0.28;0.28;;;27.00;99.90;;;;;;5051975;28;20431;-67
2022/12/24 05:46:45;;;;;;;0.20;0.20;;;26.90;99.90;;;;;;5051819;28;20182;-67
2022/12/24 05:49:11;;;;;;;0.20;0.20;;;26.90;99.90;;;;;;5051177;28;20139;-67
2022/12/24 05:51:39;;;;;;;0.20;0.20;;;26.80;99.90;;;;;;5050533;28;20056;-67
2022/12/24 05:54:05;;;;;;;0.63;0.28;;;26.70;99.90;;;;;;5051878;28;20025;-67
2022/12/24 05:56:31;;;;;;;1.95;1.85;;;26.70;99.90;;;;;;5051719;28;20036;-67
2022/12/24 05:58:57;;;;;;;0.20;0.20;;;26.70;99.90;;;;;;5051629;28;20021;-67
2022/12/24 06:01:23;;;;;;;0.20;0.20;;;26.70;99.90;;;;;;5051685;28;20630;-66
2022/12/24 06:03:50;;;;;;;0.20;0.20;;;26.70;99.90;;;;;;5051808;28;20029;-66
2022/12/24 06:06:19;;;;;;;0.32;0.32;;;26.70;99.90;;;;;;5050617;28;20053;-66
2022/12/24 06:08:47;;;;;;;0.77;0.77;;;26.60;99.90;;;;;;5052163;28;20062;-66
2022/12/24 06:11:14;;;;;;;1.27;1.17;;;26.50;99.90;;;;;;5052012;28;20040;-66
2022/12/24 06:13:41;;;;;;;0.20;0.20;;;26.40;99.90;;;;;;5052080;28;20029;-67
2022/12/24 06:16:10;;;;;;;0.20;0.20;;;26.40;99.90;;;;;;5051701;28;20096;-69
2022/12/24 06:18:36;;;;;;;2.50;2.35;;;26.20;99.90;;;;;;5051981;28;20071;-67
2022/12/24 06:21:03;;;;;;;9.23;1.23;;;26.10;99.90;;;;;;5052436;28;20029;-67
2022/12/24 06:23:31;;;;;;;7.13;4.00;;;26.10;99.90;;;;;;5052461;28;20130;-67
2022/12/24 06:25:59;;;;;;;0.20;0.20;;;26.00;99.90;;;;;;5052205;28;20032;-67
2022/12/24 06:28:26;;;;;;;0.20;0.20;;;26.00;99.90;;;;;;5052460;28;20412;-66
2022/12/24 06:30:52;;;;;;;0.20;0.20;;;25.90;99.90;;;;;;5052587;28;20112;-68
2022/12/24 06:33:18;;;;;;;2.58;1.67;;;25.80;99.90;;;;;;5050966;28;20451;-67
2022/12/24 06:35:45;;;;;;;0.38;0.38;;;25.70;99.90;;;;;;5051439;28;20056;-66
2022/12/24 06:38:11;;;;;;;0.20;0.20;;;25.60;99.90;;;;;;5051408;28;20032;-68
2022/12/24 06:40:38;;;;;;;0.30;0.30;;;25.60;99.90;;;;;;5049559;28;20048;-66
2022/12/24 06:43:04;;;;;;;0.30;0.30;;;25.50;99.90;;;;;;5051155;28;20358;-67
2022/12/24 06:45:30;;;;;;;0.63;0.63;;;25.40;99.90;;;;;;5051031;28;20032;-67
2022/12/24 06:47:56;;;;;;;0.20;0.20;;;25.40;99.90;;;;;;5051149;28;20421;-68
2022/12/24 06:50:22;;;;;;;1.98;1.15;;;25.30;99.90;;;;;;5050999;28;20029;-68
2022/12/24 06:52:48;;;;;;;0.30;0.30;;;25.20;99.90;;;;;;5051063;28;20502;-67
2022/12/24 06:55:14;;;;;;;3.83;2.47;;;25.20;99.90;;;;;;5050749;28;20466;-67
2022/12/24 06:57:39;;;;;;;0.73;0.73;;;25.10;99.90;;;;;;5050900;28;20401;-67
2022/12/24 07:00:07;;;;;;;0.30;0.30;;;25.00;99.90;;;;;;5050899;28;20021;-66
2022/12/24 07:02:33;;;;;;;0.20;0.20;;;25.00;99.90;;;;;;5053420;28;20059;-67
2022/12/24 07:04:59;;;;;;;0.20;0.20;;;24.90;99.90;;;;;;5055180;28;20595;-67
2022/12/24 07:07:25;;;;;;;0.10;0.10;;;24.80;99.90;;;;;;5055093;28;20055;-66
2022/12/24 07:09:50;;;;;;;0.20;0.20;;;24.70;99.90;;;;;;5054803;28;20036;-66
2022/12/24 07:12:16;;;;;;;1.00;1.00;;;24.60;99.90;;;;;;5054953;28;20036;-67
2022/12/24 07:14:42;;;;;;;0.20;0.20;;;24.40;99.90;;;;;;5055108;28;20024;-69
2022/12/24 07:17:07;;;;;;;0.20;0.20;;;24.40;99.90;;;;;;5044837;28;20048;-67
2022/12/24 07:19:33;;;;;;;0.20;0.20;;;24.20;99.90;;;;;;5037591;28;20549;-68
2022/12/24 07:21:59;;;;;;;10.95;1.75;;;24.10;99.90;;;;;;5038624;28;20044;-67
2022/12/24 07:24:25;;;;;;;0.20;0.20;;;24.00;99.90;;;;;;5043428;28;20025;-67
2022/12/24 07:26:50;;;;;;;0.30;0.30;;;23.90;99.90;;;;;;5044131;28;20024;-67
2022/12/24 07:29:16;;;;;;;0.20;0.20;;;23.80;99.90;;;;;;5037761;28;20075;-67
2022/12/24 07:31:42;;;;;;;5.57;3.60;;;23.90;99.90;;;;;;5042695;28;20034;-66
2022/12/24 07:34:07;;;;;;;2.13;0.85;;;23.80;99.90;;;;;;5037792;28;20022;-65
2022/12/24 07:36:33;;;;;;;2.05;1.00;;;23.80;99.90;;;;;;5044696;28;20024;-66
2022/12/24 07:38:59;;;;;;;1.33;1.25;;;23.70;99.90;;;;;;5043037;28;20013;-67
2022/12/24 07:41:25;;;;;;;3.92;2.85;;;23.70;99.90;;;;;;5042669;28;20060;-68
2022/12/24 07:43:50;;;;;;;0.20;0.20;;;23.70;99.90;;;;;;5043475;28;20029;-67
2022/12/24 07:46:16;;;;;;;0.20;0.20;;;23.70;99.90;;;;;;5043762;28;20030;-67
2022/12/24 07:48:41;;;;;;;0.55;0.55;;;23.60;99.90;;;;;;5044353;28;20087;-69
2022/12/24 07:51:08;;;;;;;0.20;0.20;;;23.50;99.90;;;;;;5042516;28;20044;-66
2022/12/24 07:53:33;;;;;;;0.20;0.20;;;23.40;99.90;;;;;;5035271;28;20026;-66
2022/12/24 07:55:59;;;;;;;0.40;0.40;;;23.30;99.90;;;;;;5036234;28;20060;-66
2022/12/24 07:58:25;;;;;;;0.20;0.20;;;23.30;99.90;;;;;;5038862;28;20033;-66
2022/12/24 08:00:56;;;;;;;0.82;0.77;;;23.20;99.90;;;;;;5044019;28;20029;-67
2022/12/24 08:03:22;;;;;;;1.30;1.20;;;23.00;99.90;;;;;;5052875;28;20068;-65
2022/12/24 08:05:48;;;;;;;1.25;0.50;;;22.90;99.90;;;;;;5036406;28;20326;-68
2022/12/24 08:08:14;;;;;;;1.02;0.68;;;22.70;99.90;;;;;;5052219;28;20078;-66
2022/12/24 08:10:40;;;;;;;0.28;0.28;;;22.60;99.90;;;;;;5041731;28;20041;-65
2022/12/24 08:13:07;;;;;;;0.30;0.30;;;22.50;99.90;;;;;;5035568;28;20025;-66
2022/12/24 08:15:32;;;;;;;0.20;0.20;;;22.40;99.90;;;;;;5034572;28;20102;-66
2022/12/24 08:17:58;;;;;;;0.20;0.20;;;22.30;99.90;;;;;;5048064;28;20416;-67
2022/12/24 08:20:24;;;;;;;3.20;1.10;;;22.30;99.90;;;;;;5038642;28;20029;-67
2022/12/24 08:22:49;;;;;;;1.08;0.88;;;22.20;99.90;;;;;;5034048;28;20060;-68
2022/12/24 08:25:15;;;;;;;0.20;0.20;;;22.10;99.90;;;;;;5038845;28;20065;-66
2022/12/24 08:27:41;;;;;;;0.30;0.30;;;22.10;99.90;;;;;;5037750;28;20026;-67
2022/12/24 08:30:07;;;;;;;0.20;0.20;;;22.10;99.90;;;;;;5043926;28;20440;-67
2022/12/24 08:32:33;;;;;;;0.20;0.20;;;22.10;99.90;;;;;;5042979;28;20428;-67
2022/12/24 08:34:58;;;;;;;0.20;0.20;;;22.10;99.90;;;;;;5053155;28;20029;-67
2022/12/24 08:37:24;;;;;;;0.20;0.20;;;22.10;99.90;;;;;;5053327;28;20037;-66
2022/12/24 08:39:50;;;;;;;12.55;2.65;;;22.20;99.90;;;;;;5051563;28;20064;-67
2022/12/24 08:42:16;;;;;;;0.90;0.90;;;22.20;99.90;;;;;;5042203;28;20102;-67
2022/12/24 08:44:41;;;;;;;0.20;0.20;;;22.20;99.90;;;;;;5039790;28;20481;-66
2022/12/24 08:47:07;;;;;;;0.20;0.20;;;22.30;99.90;;;;;;5041280;28;20454;-66
2022/12/24 08:49:33;;;;;;;0.20;0.20;;;22.40;99.90;;;;;;5032919;28;20041;-67
2022/12/24 08:51:58;;;;;;;0.30;0.30;;;22.40;99.90;;;;;;5049883;28;20033;-68
2022/12/24 08:54:24;;;;;;;0.20;0.20;;;22.50;99.90;;;;;;5044714;28;20567;-68
2022/12/24 08:56:50;;;;;;;0.55;0.55;;;22.40;99.90;;;;;;5042351;28;20039;-67
2022/12/24 08:59:16;;;;;;;5.90;1.90;;;22.40;99.90;;;;;;5045977;28;20134;-67
2022/12/24 09:01:42;;;;;;;0.28;0.28;;;22.40;99.90;;;;;;5053988;28;20498;-67
2022/12/24 09:04:08;;;;;;;0.22;0.22;;;22.30;99.90;;;;;;5049142;28;20035;-67
2022/12/24 09:06:35;;;;;;;0.30;0.30;;;22.20;99.90;;;;;;5048587;28;20057;-67
2022/12/24 09:09:02;;;;;;;0.20;0.20;;;22.00;99.90;;;;;;5052503;28;20024;-67
2022/12/24 09:11:27;;;;;;;0.20;0.20;;;21.90;99.90;;;;;;5051212;28;20033;-67
2022/12/24 09:13:53;;;;;;;0.30;0.30;;;21.80;99.90;;;;;;5030779;28;20040;-66
2022/12/24 09:16:19;;;;;;;0.82;0.60;;;21.70;99.90;;;;;;5035789;28;20036;-66
2022/12/24 09:18:45;;;;;;;0.28;0.28;;;21.70;99.90;;;;;;5052316;28;20384;-67
2022/12/24 09:21:14;;;;;;;0.25;0.25;;;21.70;99.90;;;;;;5052163;28;20020;-66
2022/12/24 09:23:41;;;;;;;0.20;0.20;;;21.80;99.90;;;;;;5046656;28;20036;-66
2022/12/24 09:26:13;;;;;;;0.20;0.20;;;22.00;99.90;;;;;;5040017;28;20027;-66
2022/12/24 09:28:38;;;;;;;0.20;0.20;;;22.00;99.90;;;;;;5045257;28;20075;-66
2022/12/24 09:31:05;;;;;;;0.20;0.20;;;22.10;99.90;;;;;;5045202;28;20037;-67
2022/12/24 09:33:36;;;;;;;0.40;0.40;;;22.10;99.90;;;;;;5049570;28;20033;-67
2022/12/24 09:36:03;;;;;;;0.20;0.20;;;22.10;99.90;;;;;;5040459;28;20143;-68
2022/12/24 09:38:29;;;;;;;0.20;0.20;;;22.20;99.90;;;;;;5037205;28;20148;-65
2022/12/24 09:40:57;;;;;;;0.63;0.63;;;22.40;99.90;;;;;;5048813;28;20083;-66
2022/12/24 09:43:26;;;;;;;0.20;0.20;;;22.60;99.90;;;;;;5045167;28;20707;-68
2022/12/24 09:46:02;;;;;;;0.30;0.30;;;22.70;99.90;;;;;;5051123;28;20066;-67
2022/12/24 09:48:32;;;;;;;0.50;0.50;;;22.90;99.90;;;;;;5041039;28;20029;-68
2022/12/24 09:51:01;;;;;;;0.20;0.20;;;23.10;99.90;;;;;;5044327;28;20048;-66
2022/12/24 09:53:38;;;;;;;0.20;0.20;;;23.20;99.90;;;;;;5051862;28;20094;-67
2022/12/24 09:56:14;;;;;;;0.20;0.20;;;23.30;99.90;;;;;;5051970;28;20051;-66
2022/12/24 09:58:44;;;;;;;0.22;0.22;;;23.30;99.90;;;;;;5051823;28;20017;-66
2022/12/24 10:01:15;;;;;;;0.20;0.20;;;23.40;99.90;;;;;;5043068;28;20017;-66
2022/12/24 10:03:42;;;;;;;0.20;0.20;;;23.50;99.90;;;;;;5037045;28;20029;-65
2022/12/24 10:06:11;;;;;;;0.20;0.20;;;23.50;99.90;;;;;;5048716;28;20086;-66
2022/12/24 10:08:59;;;;;;;0.20;0.20;;;23.70;99.90;;;;;;5037179;28;20036;-66
2022/12/24 10:11:43;;;;;;;0.32;0.32;;;23.70;99.90;;;;;;5036574;28;20045;-67
2022/12/24 10:14:56;;;;;;;0.20;0.20;;;23.60;99.90;;;;;;5036387;28;20057;-66
2022/12/24 10:17:37;;;;;;;0.20;0.20;;;23.60;99.90;;;;;;5029782;28;20167;-67
2022/12/24 10:20:22;;;;;;;1.85;0.75;;;23.70;99.90;;;;;;5033087;28;20025;-66
2022/12/24 10:22:56;;;;;;;0.20;0.20;;;23.80;99.90;;;;;;5036777;28;20171;-66
2022/12/24 10:25:32;;;;;;;0.20;0.20;;;23.80;99.90;;;;;;5049313;28;20493;-66
2022/12/24 10:28:01;;;;;;;76.47;2.80;;;23.80;99.90;;;;;;5035087;28;20481;-65
2022/12/24 10:30:27;;;;;;;0.20;0.20;;;23.80;99.90;;;;;;5032240;28;20041;-67
2022/12/24 10:32:54;;;;;;;0.40;0.40;;;23.80;99.90;;;;;;5031084;28;20112;-67
2022/12/24 10:35:28;;;;;;;0.20;0.20;;;23.80;99.90;;;;;;5030965;28;20022;-66
2022/12/24 10:37:55;;;;;;;1.17;1.17;;;23.80;99.90;;;;;;5031096;28;20034;-65
2022/12/24 10:40:41;;;;;;;0.40;0.40;;;23.80;99.90;;;;;;5032692;28;20052;-66
2022/12/24 10:43:17;;;;;;;2.05;1.02;;;23.90;99.90;;;;;;5043793;28;20107;-66
2022/12/24 10:45:47;;;;;;;0.20;0.20;;;24.00;99.90;;;;;;5032435;28;20029;-66
2022/12/24 10:48:48;;;;;;;0.20;0.20;;;24.00;99.90;;;;;;5032179;28;20032;-66
2022/12/24 10:51:39;;;;;;;1.85;0.50;;;24.10;99.90;;;;;;5047192;28;20466;-66
2022/12/24 10:54:14;;;;;;;0.20;0.20;;;24.20;99.90;;;;;;5050652;28;20359;-66
2022/12/24 10:56:46;;;;;;;0.30;0.30;;;24.20;99.90;;;;;;5048649;28;20448;-66
2022/12/24 10:59:26;;;;;;;2.47;2.28;;;24.30;99.90;;;;;;5029717;28;20026;-66
2022/12/24 11:01:52;;;;;;;0.30;0.30;;;24.30;99.90;;;;;;5031018;28;20028;-67
2022/12/24 11:04:29;;;;;;;0.47;0.47;;;24.30;99.90;;;;;;5046306;28;20029;-67
2022/12/24 11:07:01;;;;;;;0.20;0.20;;;24.30;99.90;;;;;;5045155;28;20025;-67
2022/12/24 11:09:42;;;;;;;1.95;1.85;;;24.30;99.90;;;;;;5030765;28;20029;-66
2022/12/24 11:12:22;;;;;;;1.85;0.95;;;24.30;99.90;;;;;;5031228;28;20029;-67
2022/12/24 11:14:59;;;;;;;0.20;0.20;;;24.30;99.90;;;;;;5043184;28;20169;-67
2022/12/24 11:17:25;;;;;;;0.25;0.25;;;24.30;99.90;;;;;;5050316;28;20029;-67
2022/12/24 11:19:51;;;;;;;0.20;0.20;;;24.40;99.90;;;;;;5050793;28;20461;-66
2022/12/24 11:22:28;;;;;;;0.35;0.35;;;24.40;99.90;;;;;;5039245;28;20038;-67
2022/12/24 11:25:00;;;;;;;0.20;0.20;;;24.40;99.90;;;;;;5034989;28;20126;-67
2022/12/24 11:27:43;;;;;;;0.20;0.20;;;24.40;99.90;;;;;;5039490;28;20025;-66
2022/12/24 11:30:15;;;;;;;33.63;0.93;;;24.40;99.90;;;;;;5030524;28;20520;-66
2022/12/24 11:32:49;;;;;;;0.40;0.40;;;24.40;99.90;;;;;;5034782;28;20068;-65
2022/12/24 11:35:21;;;;;;;0.20;0.20;;;24.40;99.90;;;;;;5050358;28;20036;-65
2022/12/24 11:38:11;;;;;;;0.20;0.20;;;24.40;99.90;;;;;;5048911;28;20431;-66
2022/12/24 11:41:01;;;;;;;0.20;0.20;;;24.40;99.90;;;;;;5037645;28;20583;-66
2022/12/24 11:43:43;;;;;;;1.55;1.00;;;24.30;99.90;;;;;;5030451;28;20036;-66
2022/12/24 11:46:40;;;;;;;0.20;0.20;;;24.20;99.90;;;;;;5030231;28;20033;-66
2022/12/24 11:49:29;;;;;;;0.20;0.20;;;24.20;99.90;;;;;;5037174;28;20037;-67
2022/12/24 11:52:10;;;;;;;0.20;0.20;;;24.20;99.90;;;;;;5033986;28;20396;-66
2022/12/24 11:55:08;;;;;;;0.20;0.20;;;24.10;99.90;;;;;;5034041;28;20227;-66
2022/12/24 11:58:01;;;;;;;0.20;0.20;;;24.10;99.90;;;;;;5052266;28;20043;-66
2022/12/24 12:00:27;;;;;;;0.20;0.20;;;24.20;99.90;;;;;;5044426;28;20100;-65
2022/12/24 12:02:57;;;;;;;0.25;0.25;;;24.20;99.90;;;;;;5052216;28;20013;-64
2022/12/24 12:05:28;;;;;;;0.20;0.20;;;24.10;99.90;;;;;;5047424;28;20051;-65
2022/12/24 12:08:16;;;;;;;30.60;2.72;;;24.10;99.90;;;;;;5034617;28;20124;-68
2022/12/24 12:10:44;;;;;;;0.45;0.32;;;24.10;99.90;;;;;;5044224;28;20492;-67
2022/12/24 12:13:17;;;;;;;0.30;0.30;;;24.00;99.90;;;;;;5035171;28;20032;-66
2022/12/24 12:15:48;;;;;;;0.20;0.20;;;24.00;99.90;;;;;;5047001;28;20024;-65
2022/12/24 12:18:15;;;;;;;0.20;0.20;;;23.90;99.90;;;;;;5045801;28;20057;-66
2022/12/24 12:20:52;;;;;;;0.20;0.20;;;23.90;99.90;;;;;;5045939;28;20031;-67
2022/12/24 12:23:35;;;;;;;0.20;0.20;;;23.90;99.90;;;;;;5033234;28;20047;-65
2022/12/24 12:26:24;;;;;;;0.30;0.30;;;23.90;99.90;;;;;;5039812;28;20377;-65
2022/12/24 12:29:05;;;;;;;1.10;0.50;;;24.00;99.90;;;;;;5053138;28;20021;-65
2022/12/24 12:31:38;;;;;;;0.20;0.20;;;24.00;99.90;;;;;;5053063;28;20029;-66
2022/12/24 12:34:30;;;;;;;0.30;0.30;;;24.10;99.90;;;;;;5053149;28;20021;-65
2022/12/24 12:36:59;;;;;;;;;;;24.00;99.90;;;;;;5053740;28;20032;-63
2022/12/24 12:39:25;;;;;;;1.13;1.10;;;24.00;99.90;;;;;;5034574;28;19909;-66
2022/12/24 12:42:00;;;;;;;0.82;0.82;;;24.00;99.90;;;;;;5032988;28;20072;-65
2022/12/24 12:44:40;;;;;;;0.65;0.40;;;23.40;99.90;;;;;;5031822;28;20053;-65
2022/12/24 12:47:23;;;;;;;0.35;0.35;;;23.40;99.90;;;;;;5033010;28;20029;-66
2022/12/24 12:50:14;;;;;;;0.85;0.85;;;23.30;99.90;;;;;;5032716;28;20029;-66
2022/12/24 12:52:48;;;;;;;0.20;0.20;;;23.40;99.90;;;;;;5034722;28;20268;-66
2022/12/24 12:55:49;;;;;;;1.08;1.08;;;23.40;99.90;;;;;;5035673;28;20107;-66
2022/12/24 12:58:30;;;;;;;0.38;0.38;;;23.40;99.90;;;;;;5052845;28;20098;-65
2022/12/24 13:01:06;;;;;;;0.20;0.20;;;23.50;99.90;;;;;;5038774;28;20059;-66
2022/12/24 13:03:56;;;;;;;30.88;1.65;;;23.50;99.90;;;;;;5034961;28;20021;-66
2022/12/24 13:06:58;;;;;;;0.20;0.20;;;23.60;99.90;;;;;;5036401;28;20052;-66
2022/12/24 13:09:24;;;;;;;0.20;0.20;;;23.60;99.90;;;;;;5033084;28;20044;-65
2022/12/24 13:12:28;;;;;;;0.20;0.20;;;23.80;99.90;;;;;;5036641;28;20029;-67